Portada
METAR-TAF:

METAR-TAF

Aeroports :

Santa Caterina, Egipte

latitud: 28-41-07N, longitud: 034-03-45E, altitud: 1331 m

Observació

L'informe es va fer fa 2 hores i 22 minuts, a les 15:00 UTC
Vent 5 kt del Est/Nord-Est
Temperatura 17°C
Humitat 39%
Pressió 1022 hPa
Visibilitat 10 km o més
sense núvols per sota de 1500 mi sense presència de cumulonimbus.

METAR: HESC 181500Z 06005KT CAVOK 17/03 Q1022 NOSIG

Hora: 19:22 (17:22 UTC)

Pronòstic

L'informe es va fer fa 6 hores i 22 minuts, a les 11:00 UTC
Pronòstic vàlid del 18 a les 12 UTC al 19 a les 18 UTC
Vent 10 kt del Nord
Visibilitat 10 km o més
Núvols disperses a una alçada de 2000 ft

TAF: HESC 181100Z 1812/1918 01010KT 9999 SCT020

Observacions i pronòstics meteorològics de més de 4000 aeroports (METAR i TAF).

Les estacions disponibles són els punts grocs i vermells al mapa.

Posi el ratolí al punt desitjat per veure el nom de l'estació.

Feu clic per veure les observacions i els pronòstics meteorològics.

Per canviar el mapa: feu clic els botons verds amb una creu de color negre per apropar; al botó verd amb un guió per allunyar la imatge; o en les fletxes verdes per a mapes adjacents.


METAR-TAF: